createdAt,value
2017-12-19T00:02:10.095Z,13.57
2017-12-19T00:04:39.354Z,13.43
2017-12-19T00:07:07.814Z,15.45
2017-12-19T00:09:36.454Z,14.93
2017-12-19T00:12:05.014Z,16.12
2017-12-19T00:14:33.414Z,17.20
2017-12-19T00:17:02.574Z,19.37
2017-12-19T00:19:30.894Z,22.13
2017-12-19T00:21:59.854Z,20.23
2017-12-19T00:24:28.356Z,21.40
2017-12-19T00:26:56.514Z,20.62
2017-12-19T00:29:25.514Z,26.05
2017-12-19T00:31:53.899Z,22.13
2017-12-19T00:34:22.234Z,23.15
2017-12-19T00:36:50.534Z,22.17
2017-12-19T00:39:18.794Z,20.12
2017-12-19T00:41:47.094Z,17.87
2017-12-19T00:44:15.474Z,18.92
2017-12-19T00:46:43.614Z,19.12
2017-12-19T00:49:11.816Z,20.62
2017-12-19T00:51:40.193Z,22.25
2017-12-19T00:54:08.893Z,22.92
2017-12-19T00:56:38.193Z,21.27
2017-12-19T00:59:07.394Z,18.02
2017-12-19T01:01:36.414Z,19.55
2017-12-19T01:04:05.035Z,22.55
2017-12-19T01:06:33.454Z,23.15
2017-12-19T01:09:02.834Z,16.35
2017-12-19T01:11:31.314Z,21.98
2017-12-19T01:13:59.794Z,17.67
2017-12-19T01:16:28.595Z,22.92
2017-12-19T01:18:57.875Z,23.08
2017-12-19T01:21:26.195Z,22.00
2017-12-19T01:23:54.534Z,28.38
2017-12-19T01:26:23.714Z,23.83
2017-12-19T01:28:52.194Z,22.33
2017-12-19T01:31:20.454Z,21.77
2017-12-19T01:33:48.774Z,19.55
2017-12-19T01:36:17.034Z,21.73
2017-12-19T01:38:45.294Z,19.90
2017-12-19T01:41:13.594Z,19.62
2017-12-19T01:43:41.954Z,10.35
2017-12-19T01:46:10.254Z,15.65
2017-12-19T01:48:39.238Z,12.77
2017-12-19T01:51:07.733Z,13.62
2017-12-19T01:53:37.014Z,12.90
2017-12-19T01:56:05.354Z,10.48
2017-12-19T01:58:33.873Z,10.25
2017-12-19T02:01:02.153Z,11.90
2017-12-19T02:03:31.554Z,11.30
2017-12-19T02:05:59.774Z,10.13
2017-12-19T02:08:28.294Z,8.23
2017-12-19T02:10:56.554Z,10.32
2017-12-19T02:13:25.054Z,8.13
2017-12-19T02:15:53.477Z,10.40
2017-12-19T02:18:21.733Z,11.93
2017-12-19T02:20:51.334Z,14.43
2017-12-19T02:23:20.614Z,11.88
2017-12-19T02:25:49.374Z,13.55
2017-12-19T02:28:20.474Z,11.27
2017-12-19T02:30:49.873Z,12.35
2017-12-19T02:33:19.155Z,16.58
2017-12-19T02:35:48.634Z,17.67
2017-12-19T02:38:17.324Z,15.88
2017-12-19T02:40:45.994Z,18.85
2017-12-19T02:43:22.394Z,18.62
2017-12-19T02:45:53.174Z,19.52
2017-12-19T02:48:22.014Z,19.50
2017-12-19T02:50:51.494Z,17.95
2017-12-19T02:53:19.974Z,19.98
2017-12-19T02:55:48.694Z,16.52
2017-12-19T02:58:17.973Z,20.00
2017-12-19T03:00:46.334Z,21.02
2017-12-19T03:03:14.733Z,19.92
2017-12-19T03:05:43.014Z,20.50
2017-12-19T03:08:12.113Z,19.83
2017-12-19T03:10:41.354Z,16.80
2017-12-19T03:13:12.634Z,15.82
2017-12-19T03:15:41.034Z,14.57
2017-12-19T03:18:09.715Z,16.50
2017-12-19T03:20:37.874Z,12.82
2017-12-19T03:23:06.314Z,15.43
2017-12-19T03:25:34.534Z,14.23
2017-12-19T03:28:02.693Z,13.90
2017-12-19T03:30:30.975Z,15.80
2017-12-19T03:32:59.353Z,15.00
2017-12-19T03:35:27.614Z,14.52
2017-12-19T03:37:56.314Z,15.55
2017-12-19T03:40:24.954Z,12.98
2017-12-19T03:42:53.494Z,13.70
2017-12-19T03:45:21.954Z,14.27
2017-12-19T03:47:50.754Z,13.27
2017-12-19T03:50:19.014Z,15.30
2017-12-19T03:52:47.493Z,20.15
2017-12-19T03:55:16.094Z,14.87
2017-12-19T03:57:46.074Z,13.10
2017-12-19T04:00:14.994Z,15.50
2017-12-19T04:02:43.223Z,13.60
2017-12-19T04:05:12.074Z,12.63
2017-12-19T04:07:41.114Z,19.62
2017-12-19T04:10:09.935Z,12.95
2017-12-19T04:12:39.294Z,13.07
2017-12-19T04:15:07.814Z,11.70
2017-12-19T04:17:36.294Z,11.93
2017-12-19T04:20:04.794Z,13.62
2017-12-19T04:22:34.014Z,14.43
2017-12-19T04:25:02.554Z,11.93
2017-12-19T04:27:30.895Z,13.30
2017-12-19T04:29:59.293Z,10.77
2017-12-19T04:32:27.794Z,10.38
2017-12-19T04:34:56.073Z,12.93
2017-12-19T04:37:24.402Z,14.10
2017-12-19T04:39:52.853Z,16.17
2017-12-19T04:42:21.910Z,11.10
2017-12-19T04:44:50.394Z,14.95
2017-12-19T04:47:19.595Z,15.30
2017-12-19T04:49:47.974Z,14.05
2017-12-19T04:52:17.293Z,10.60
2017-12-19T04:54:46.354Z,9.65
2017-12-19T04:57:14.754Z,9.20
2017-12-19T04:59:43.014Z,10.90
2017-12-19T05:02:11.714Z,10.77
2017-12-19T05:04:41.853Z,9.70
2017-12-19T05:07:11.055Z,9.95
2017-12-19T05:09:40.414Z,8.43
2017-12-19T05:12:08.794Z,8.40
2017-12-19T05:14:37.594Z,12.88
2017-12-19T05:17:07.814Z,8.07
2017-12-19T05:19:36.294Z,12.37
2017-12-19T05:22:04.757Z,8.00
2017-12-19T05:24:33.054Z,11.18
2017-12-19T05:27:02.335Z,9.98
2017-12-19T05:29:30.704Z,13.10
2017-12-19T05:31:59.114Z,18.00
2017-12-19T05:34:28.089Z,13.43
2017-12-19T05:36:56.370Z,10.77
2017-12-19T05:39:25.850Z,10.10
2017-12-19T05:41:54.350Z,10.57
2017-12-19T05:44:22.993Z,12.80
2017-12-19T05:46:51.730Z,10.60
2017-12-19T05:49:20.110Z,13.35
2017-12-19T05:51:48.754Z,13.52
2017-12-19T05:54:17.270Z,18.20
2017-12-19T05:56:46.890Z,15.65
2017-12-19T05:59:15.970Z,10.10
2017-12-19T06:01:44.770Z,12.18
2017-12-19T06:04:14.190Z,15.73
2017-12-19T06:06:42.830Z,12.32
2017-12-19T06:09:11.297Z,8.85
2017-12-19T06:11:39.810Z,11.20
2017-12-19T06:14:08.389Z,10.35
2017-12-19T06:16:36.970Z,7.97
2017-12-19T06:19:05.590Z,8.93
2017-12-19T06:21:34.186Z,12.73
2017-12-19T06:24:02.618Z,11.55
2017-12-19T06:26:30.930Z,9.55
2017-12-19T06:28:59.470Z,12.50
2017-12-19T06:31:27.950Z,10.60
2017-12-19T06:33:56.610Z,14.27
2017-12-19T06:36:24.910Z,18.58
2017-12-19T06:38:53.390Z,17.52
2017-12-19T06:41:22.370Z,12.85
2017-12-19T06:43:50.549Z,17.62
2017-12-19T06:46:18.750Z,18.10
2017-12-19T06:48:47.950Z,14.60
2017-12-19T06:51:17.332Z,27.62
2017-12-19T06:53:46.617Z,18.73
2017-12-19T06:56:15.131Z,18.73
2017-12-19T06:58:44.510Z,18.75
2017-12-19T07:01:12.810Z,21.25
2017-12-19T07:03:41.810Z,16.48
2017-12-19T07:06:10.053Z,19.37
2017-12-19T07:08:38.430Z,19.92
2017-12-19T07:11:06.970Z,19.73
2017-12-19T07:13:35.610Z,21.05
2017-12-19T07:16:05.140Z,16.35
2017-12-19T07:18:33.170Z,19.52
2017-12-19T07:21:01.909Z,17.05
2017-12-19T07:23:30.809Z,17.80
2017-12-19T07:25:59.329Z,19.42
2017-12-19T07:28:27.689Z,22.80
2017-12-19T07:30:55.851Z,21.05
2017-12-19T07:33:24.470Z,18.58
2017-12-19T07:35:53.511Z,17.30
2017-12-19T07:38:22.089Z,20.00
2017-12-19T07:40:50.711Z,17.23
2017-12-19T07:43:19.308Z,14.38
2017-12-19T07:45:47.670Z,29.55
2017-12-19T07:48:15.969Z,17.05
2017-12-19T07:50:45.009Z,23.77
2017-12-19T07:53:13.328Z,20.33
2017-12-19T07:55:41.431Z,22.37
2017-12-19T07:58:09.769Z,31.20
2017-12-19T08:00:38.149Z,28.98
2017-12-19T08:03:06.416Z,24.33
2017-12-19T08:05:34.729Z,24.50
2017-12-19T08:08:03.895Z,26.60
2017-12-19T08:10:32.069Z,31.85
2017-12-19T08:13:00.229Z,28.40
2017-12-19T08:15:28.693Z,26.48
2017-12-19T08:17:57.009Z,26.95
2017-12-19T08:20:26.110Z,34.97
2017-12-19T08:22:55.429Z,32.05
2017-12-19T08:25:23.788Z,29.12
2017-12-19T08:27:53.169Z,26.15
2017-12-19T08:30:21.788Z,30.27
2017-12-19T08:32:50.350Z,33.92
2017-12-19T08:35:19.410Z,35.70
2017-12-19T08:37:47.929Z,31.00
2017-12-19T08:40:17.009Z,34.50
2017-12-19T08:42:46.089Z,35.15
2017-12-19T08:45:14.290Z,36.95
2017-12-19T08:47:43.209Z,43.08
2017-12-19T08:50:11.549Z,38.20
2017-12-19T08:52:40.128Z,37.85
2017-12-19T08:55:08.789Z,46.75
2017-12-19T08:57:37.092Z,37.35
2017-12-19T09:00:05.470Z,37.25
2017-12-19T09:02:33.617Z,38.28
2017-12-19T09:05:02.017Z,38.78
2017-12-19T09:07:30.491Z,40.92
2017-12-19T09:09:58.792Z,43.47
2017-12-19T09:12:27.871Z,46.40
2017-12-19T09:14:56.853Z,44.13
2017-12-19T09:17:25.420Z,40.05
2017-12-19T09:19:53.697Z,42.85
2017-12-19T09:22:22.332Z,45.15
2017-12-19T09:24:50.371Z,43.83
2017-12-19T09:27:18.532Z,43.35
2017-12-19T09:29:47.011Z,38.45
2017-12-19T09:32:15.551Z,38.80
2017-12-19T09:34:43.771Z,37.50
2017-12-19T09:37:11.851Z,40.42
2017-12-19T09:39:40.231Z,44.75
2017-12-19T09:42:08.412Z,36.70
2017-12-19T09:44:36.772Z,41.55
2017-12-19T09:47:05.051Z,36.45
2017-12-19T09:49:33.351Z,41.92
2017-12-19T09:52:02.431Z,41.10
2017-12-19T09:54:31.296Z,46.05
2017-12-19T09:56:59.405Z,44.10
2017-12-19T09:59:28.785Z,47.53
2017-12-19T10:01:58.791Z,47.97
2017-12-19T10:04:27.351Z,41.30
2017-12-19T10:06:55.891Z,43.42
2017-12-19T10:09:25.131Z,43.35
2017-12-19T10:11:53.792Z,47.67
2017-12-19T10:14:22.212Z,39.58
2017-12-19T10:16:50.711Z,39.30
2017-12-19T10:19:19.172Z,35.22
2017-12-19T10:21:47.871Z,34.33
2017-12-19T10:24:16.292Z,42.28
2017-12-19T10:26:44.611Z,41.72
2017-12-19T10:29:13.111Z,44.60
2017-12-19T10:31:41.331Z,37.25
2017-12-19T10:34:09.772Z,36.08
2017-12-19T10:36:38.939Z,36.20
2017-12-19T10:39:07.180Z,34.95
2017-12-19T10:41:35.398Z,33.60
2017-12-19T10:44:03.679Z,30.45
2017-12-19T10:46:31.838Z,24.25
2017-12-19T10:49:00.438Z,23.65
2017-12-19T10:51:29.020Z,27.25
2017-12-19T10:53:57.536Z,22.42
2017-12-19T10:56:25.839Z,24.23
2017-12-19T10:58:54.279Z,25.58
2017-12-19T11:01:23.539Z,25.50
2017-12-19T11:03:52.899Z,30.75
2017-12-19T11:06:21.339Z,31.05
2017-12-19T11:08:50.739Z,30.30
2017-12-19T11:11:19.419Z,29.25
2017-12-19T11:13:47.700Z,31.15
2017-12-19T11:16:16.979Z,37.90
2017-12-19T11:18:45.319Z,35.80
2017-12-19T11:21:14.059Z,35.17
2017-12-19T11:23:42.319Z,39.53
2017-12-19T11:26:10.818Z,33.33
2017-12-19T11:28:40.098Z,30.45
2017-12-19T11:31:08.859Z,34.67
2017-12-19T11:33:37.459Z,28.10
2017-12-19T11:36:05.719Z,24.40
2017-12-19T11:38:34.130Z,21.45
2017-12-19T11:41:02.510Z,21.40
2017-12-19T11:43:30.790Z,21.75
2017-12-19T11:46:00.071Z,22.13
2017-12-19T11:48:28.450Z,27.90
2017-12-19T11:50:56.670Z,18.50
2017-12-19T11:53:25.005Z,19.17
2017-12-19T11:55:53.532Z,20.17
2017-12-19T11:58:21.790Z,24.48
2017-12-19T12:00:51.075Z,23.30
2017-12-19T12:03:19.952Z,20.02
2017-12-19T12:05:48.110Z,19.98
2017-12-19T12:08:16.410Z,17.08
2017-12-19T12:10:44.670Z,17.50
2017-12-19T12:13:13.571Z,17.67
2017-12-19T12:15:42.033Z,17.05
2017-12-19T12:18:10.430Z,20.02
2017-12-19T12:20:38.610Z,17.00
2017-12-19T12:23:07.111Z,19.80
2017-12-19T12:25:36.311Z,23.83
2017-12-19T12:28:04.570Z,18.45
2017-12-19T12:30:34.010Z,19.52
2017-12-19T12:33:02.630Z,18.73
2017-12-19T12:35:32.553Z,17.58
2017-12-19T12:38:01.087Z,15.95
2017-12-19T12:40:30.393Z,17.87
2017-12-19T12:42:58.790Z,14.18
2017-12-19T12:45:27.110Z,16.52
2017-12-19T12:47:57.050Z,15.75
2017-12-19T12:50:25.272Z,17.05
2017-12-19T12:52:53.489Z,14.05
2017-12-19T12:55:21.530Z,18.45
2017-12-19T12:57:50.110Z,13.77
2017-12-19T13:00:18.491Z,16.33
2017-12-19T13:02:47.650Z,16.00
2017-12-19T13:05:16.408Z,15.80
2017-12-19T13:07:44.630Z,19.17
2017-12-19T13:10:13.193Z,17.73
2017-12-19T13:12:41.693Z,20.77
2017-12-19T13:15:10.283Z,23.62
2017-12-19T13:17:39.493Z,29.42
2017-12-19T13:20:08.877Z,25.02
2017-12-19T13:22:37.233Z,25.65
2017-12-19T13:25:05.748Z,24.25
2017-12-19T13:27:34.148Z,26.02
2017-12-19T13:30:03.321Z,23.35
2017-12-19T13:32:31.795Z,24.73
2017-12-19T13:35:00.064Z,26.60
2017-12-19T13:37:28.856Z,24.17
2017-12-19T13:39:57.133Z,21.85
2017-12-19T13:42:25.314Z,22.70
2017-12-19T13:44:54.492Z,20.40
2017-12-19T13:47:23.099Z,24.90
2017-12-19T13:49:52.273Z,25.75
2017-12-19T13:52:20.893Z,27.80
2017-12-19T13:54:50.373Z,32.22
2017-12-19T13:57:18.953Z,33.58
2017-12-19T13:59:47.395Z,27.08
2017-12-19T14:02:16.234Z,27.00
2017-12-19T14:04:45.493Z,32.65
2017-12-19T14:07:14.013Z,29.75
2017-12-19T14:09:43.093Z,40.20
2017-12-19T14:12:11.133Z,33.58
2017-12-19T14:14:39.673Z,41.75
2017-12-19T14:17:08.633Z,35.03
2017-12-19T14:19:37.213Z,27.45
2017-12-19T14:22:05.593Z,31.17
2017-12-19T14:24:33.953Z,27.98
2017-12-19T14:27:02.373Z,28.65
2017-12-19T14:29:32.013Z,30.83
2017-12-19T14:32:00.333Z,29.37
2017-12-19T14:34:29.533Z,29.00
2017-12-19T14:36:57.814Z,27.17
2017-12-19T14:39:25.974Z,25.70
2017-12-19T14:41:54.153Z,28.85
2017-12-19T14:44:22.326Z,28.42
2017-12-19T14:46:50.714Z,23.77
2017-12-19T14:49:18.875Z,20.27
2017-12-19T14:51:47.353Z,25.58
2017-12-19T14:54:15.633Z,29.55
2017-12-19T14:56:44.113Z,25.92
2017-12-19T14:59:12.294Z,25.45
2017-12-19T15:01:41.234Z,27.75
2017-12-19T15:04:09.673Z,30.83
2017-12-19T15:06:38.713Z,25.30
2017-12-19T15:09:07.034Z,24.25
2017-12-19T15:11:35.393Z,19.42
2017-12-19T15:14:03.857Z,20.12
2017-12-19T15:16:32.473Z,33.10
2017-12-19T15:19:00.813Z,22.13
2017-12-19T15:21:29.073Z,22.60
2017-12-19T15:23:57.693Z,24.63
2017-12-19T15:26:25.753Z,21.60
2017-12-19T15:28:54.193Z,24.37
2017-12-19T15:31:22.833Z,23.40
2017-12-19T15:33:51.246Z,21.35
2017-12-19T15:36:20.489Z,21.70
2017-12-19T15:38:48.987Z,22.05
2017-12-19T15:41:17.447Z,20.48
2017-12-19T15:43:45.877Z,20.52
2017-12-19T15:46:14.946Z,19.83
2017-12-19T15:48:43.326Z,17.48
2017-12-19T15:51:11.706Z,18.90
2017-12-19T15:53:40.167Z,20.20
2017-12-19T15:56:08.546Z,25.90
2017-12-19T15:58:36.806Z,20.75
2017-12-19T16:01:05.176Z,19.25
2017-12-19T16:03:33.786Z,22.35
2017-12-19T16:06:02.166Z,27.92
2017-12-19T16:08:30.466Z,25.98
2017-12-19T16:10:59.908Z,19.95
2017-12-19T16:13:28.126Z,19.17
2017-12-19T16:15:56.486Z,20.48
2017-12-19T16:18:24.786Z,22.27
2017-12-19T16:20:53.467Z,25.67
2017-12-19T16:23:22.148Z,27.13
2017-12-19T16:25:50.327Z,24.02
2017-12-19T16:28:18.386Z,24.08
2017-12-19T16:30:47.286Z,25.73
2017-12-19T16:33:15.546Z,31.92
2017-12-19T16:35:43.727Z,32.28
2017-12-19T16:38:12.007Z,25.80
2017-12-19T16:40:41.586Z,21.75
2017-12-19T16:43:10.147Z,20.60
2017-12-19T16:45:38.472Z,20.98
2017-12-19T16:48:06.853Z,20.62
2017-12-19T16:50:35.312Z,26.60
2017-12-19T16:53:03.672Z,22.85
2017-12-19T16:55:31.972Z,22.00
2017-12-19T16:58:00.272Z,23.87
2017-12-19T17:00:29.235Z,23.00
2017-12-19T17:02:58.069Z,41.60
2017-12-19T17:05:27.509Z,25.77
2017-12-19T17:07:55.806Z,21.17
2017-12-19T17:10:23.879Z,20.73
2017-12-19T17:12:52.609Z,23.17
2017-12-19T17:15:21.169Z,21.92
2017-12-19T17:17:50.448Z,24.80
2017-12-19T17:20:19.042Z,29.90
2017-12-19T17:22:47.281Z,22.13
2017-12-19T17:25:15.821Z,19.58
2017-12-19T17:27:45.081Z,20.42
2017-12-19T17:30:13.461Z,24.15
2017-12-19T17:32:41.782Z,23.27
2017-12-19T17:35:10.328Z,22.65
2017-12-19T17:37:38.802Z,24.10
2017-12-19T17:40:07.061Z,26.25
2017-12-19T17:42:35.499Z,30.50
2017-12-19T17:45:03.736Z,25.27
2017-12-19T17:47:31.851Z,27.55
2017-12-19T17:49:59.968Z,24.75
2017-12-19T17:52:28.258Z,23.58
2017-12-19T17:54:56.739Z,26.87
2017-12-19T17:57:24.919Z,27.45
2017-12-19T17:59:53.497Z,24.17
2017-12-19T18:02:22.797Z,21.65
2017-12-19T18:04:51.176Z,23.87
2017-12-19T18:07:19.759Z,21.70
2017-12-19T18:09:48.877Z,22.65
2017-12-19T18:12:17.939Z,25.88
2017-12-19T18:14:46.214Z,23.20
2017-12-19T18:17:14.692Z,22.80
2017-12-19T18:19:43.277Z,24.30
2017-12-19T18:22:11.857Z,20.83
2017-12-19T18:24:40.557Z,21.83
2017-12-19T18:27:09.637Z,24.00
2017-12-19T18:29:38.737Z,19.73
2017-12-19T18:32:07.197Z,22.80
2017-12-19T18:34:35.397Z,21.70
2017-12-19T18:37:04.458Z,22.95
2017-12-19T18:39:32.959Z,22.23
2017-12-19T18:42:01.848Z,25.05
2017-12-19T18:44:30.012Z,25.98
2017-12-19T18:46:58.389Z,21.98
2017-12-19T18:49:26.791Z,20.85
2017-12-19T18:51:55.168Z,23.60
2017-12-19T18:54:23.328Z,25.55
2017-12-19T18:56:52.348Z,22.00
2017-12-19T18:59:21.228Z,21.87
2017-12-19T19:01:50.409Z,23.02
2017-12-19T19:04:19.608Z,23.67
2017-12-19T19:06:48.716Z,18.52
2017-12-19T19:09:17.908Z,29.90
2017-12-19T19:11:46.168Z,25.40
2017-12-19T19:14:14.348Z,32.28
2017-12-19T19:16:42.628Z,30.60
2017-12-19T19:19:10.848Z,26.87
2017-12-19T19:21:40.187Z,30.70
2017-12-19T19:24:08.808Z,28.45
2017-12-19T19:26:38.208Z,32.47
2017-12-19T19:29:07.410Z,30.70
2017-12-19T19:31:36.808Z,28.70
2017-12-19T19:34:06.168Z,29.77
2017-12-19T19:36:34.768Z,31.50
2017-12-19T19:39:03.328Z,27.65
2017-12-19T19:41:31.728Z,30.12
2017-12-19T19:44:00.208Z,38.38
2017-12-19T19:46:28.708Z,41.75
2017-12-19T19:48:58.168Z,35.50
2017-12-19T19:51:26.448Z,36.15
2017-12-19T19:53:54.968Z,30.98
2017-12-19T19:56:24.228Z,31.48
2017-12-19T19:58:52.749Z,32.38
2017-12-19T20:01:22.029Z,32.67
2017-12-19T20:03:50.588Z,36.20
2017-12-19T20:06:19.268Z,34.95
2017-12-19T20:08:47.868Z,33.55
2017-12-19T20:11:16.588Z,32.35
2017-12-19T20:13:46.067Z,33.05
2017-12-19T20:16:15.669Z,32.88
2017-12-19T20:18:44.368Z,34.50
2017-12-19T20:21:12.888Z,31.12
2017-12-19T20:23:41.669Z,29.58
2017-12-19T20:26:09.788Z,28.50
2017-12-19T20:28:38.314Z,31.50
2017-12-19T20:31:07.271Z,29.20
2017-12-19T20:33:35.738Z,29.58
2017-12-19T20:36:04.196Z,28.62
2017-12-19T20:38:32.836Z,34.60
2017-12-19T20:41:02.096Z,34.22
2017-12-19T20:43:30.536Z,33.90
2017-12-19T20:45:59.177Z,31.98
2017-12-19T20:48:27.557Z,33.33
2017-12-19T20:50:56.237Z,39.33
2017-12-19T20:53:24.637Z,33.33
2017-12-19T20:55:53.896Z,33.58
2017-12-19T20:58:22.417Z,42.38
2017-12-19T21:00:51.376Z,33.50
2017-12-19T21:03:19.516Z,32.25
2017-12-19T21:05:47.917Z,31.40
2017-12-19T21:08:16.118Z,34.20
2017-12-19T21:10:44.376Z,31.80
2017-12-19T21:13:12.896Z,34.55
2017-12-19T21:15:41.356Z,34.53
2017-12-19T21:18:11.017Z,33.38
2017-12-19T21:20:39.057Z,36.53
2017-12-19T21:23:08.117Z,36.92
2017-12-19T21:25:36.497Z,38.42
2017-12-19T21:28:05.896Z,33.72
2017-12-19T21:30:34.295Z,61.95
2017-12-19T21:33:03.716Z,37.70
2017-12-19T21:35:32.376Z,39.00
2017-12-19T21:38:01.556Z,38.13
2017-12-19T21:40:30.036Z,35.38
2017-12-19T21:42:58.715Z,40.85
2017-12-19T21:45:27.216Z,40.17
2017-12-19T21:47:55.696Z,42.05
2017-12-19T21:50:25.095Z,38.35
2017-12-19T21:52:53.356Z,44.05
2017-12-19T21:55:21.956Z,41.95
2017-12-19T21:57:51.336Z,41.15
2017-12-19T22:00:19.416Z,45.42
2017-12-19T22:02:47.895Z,41.10
2017-12-19T22:05:16.177Z,45.22
2017-12-19T22:07:44.656Z,44.63
2017-12-19T22:10:12.918Z,39.85
2017-12-19T22:12:41.339Z,43.28
2017-12-19T22:15:09.564Z,41.15
2017-12-19T22:17:37.744Z,41.13
2017-12-19T22:20:06.185Z,48.63
2017-12-19T22:22:34.325Z,42.10
2017-12-19T22:25:03.485Z,42.83
2017-12-19T22:27:31.985Z,42.15
2017-12-19T22:30:00.045Z,42.97
2017-12-19T22:32:28.224Z,42.92
2017-12-19T22:34:56.806Z,42.22
2017-12-19T22:37:25.586Z,41.33
2017-12-19T22:39:54.125Z,43.70
2017-12-19T22:42:22.606Z,41.78
2017-12-19T22:44:51.026Z,44.88
2017-12-19T22:47:19.384Z,43.40
2017-12-19T22:49:48.005Z,46.60
2017-12-19T22:52:16.165Z,45.50
2017-12-19T22:54:44.572Z,46.35
2017-12-19T22:57:14.245Z,45.42
2017-12-19T22:59:42.525Z,47.10
2017-12-19T23:02:11.245Z,43.13
2017-12-19T23:04:40.624Z,43.97
2017-12-19T23:07:10.625Z,41.15
2017-12-19T23:09:39.524Z,42.03
2017-12-19T23:12:07.904Z,40.85
2017-12-19T23:14:36.065Z,40.38
2017-12-19T23:17:04.444Z,43.20
2017-12-19T23:19:32.924Z,41.78
2017-12-19T23:22:01.485Z,43.30
2017-12-19T23:24:30.665Z,41.22
2017-12-19T23:26:58.991Z,46.13
2017-12-19T23:29:27.144Z,42.22
2017-12-19T23:31:55.224Z,46.17
2017-12-19T23:34:23.605Z,46.60
2017-12-19T23:36:52.045Z,43.78
2017-12-19T23:39:20.164Z,45.75
2017-12-19T23:41:48.425Z,44.05
2017-12-19T23:44:16.608Z,43.97
2017-12-19T23:46:45.085Z,49.85
2017-12-19T23:49:13.365Z,40.22
2017-12-19T23:51:41.446Z,47.03
2017-12-19T23:54:10.365Z,43.87
2017-12-19T23:56:38.686Z,48.67
2017-12-19T23:59:07.165Z,42.50
